Time;durP1;ratioP1;P1;durP2;ratioP2;P2;SDS_P1;SDS_P2;PMS_P1;PMS_P2;Temp;Humidity;BMP_temperature;BMP_pressure;BME280_temperature;BME280_humidity;BME280_pressure;Samples;Min_cycle;Max_cycle;Signal;HPM_P1;HPM_P2
2023/03/19 00:00:26;;;;;;;11.70;10.50;;;13.40;99.90;;;;;;5053835;28;20619;-79
2023/03/19 00:02:53;;;;;;;18.38;12.40;;;13.40;99.90;;;;;;5054427;28;20670;-76
2023/03/19 00:05:20;;;;;;;14.40;12.23;;;13.30;99.90;;;;;;5053954;28;20225;-76
2023/03/19 00:07:47;;;;;;;13.93;12.63;;;13.30;99.90;;;;;;5055081;28;20569;-78
2023/03/19 00:10:14;;;;;;;12.85;11.25;;;13.30;99.90;;;;;;5055518;28;20233;-76
2023/03/19 00:12:43;;;;;;;12.95;11.52;;;13.30;99.90;;;;;;5053594;28;20227;-79
2023/03/19 00:15:13;;;;;;;16.52;12.27;;;13.30;99.90;;;;;;5053896;28;20216;-77
2023/03/19 00:17:42;;;;;;;13.65;11.23;;;13.30;99.90;;;;;;5041920;28;20236;-80
2023/03/19 00:20:11;;;;;;;13.18;11.75;;;13.30;99.90;;;;;;5053597;28;20686;-76
2023/03/19 00:22:38;;;;;;;13.50;12.10;;;13.30;99.90;;;;;;5053462;28;20229;-79
2023/03/19 00:25:13;;;;;;;13.65;12.32;;;13.30;99.90;;;;;;5053958;28;20294;-77
2023/03/19 00:27:43;;;;;;;12.93;11.45;;;13.20;99.90;;;;;;5053307;28;20240;-79
2023/03/19 00:30:11;;;;;;;14.57;11.63;;;13.20;99.90;;;;;;5053079;28;20225;-76
2023/03/19 00:32:39;;;;;;;11.73;10.52;;;13.20;99.90;;;;;;5052227;28;20541;-76
2023/03/19 00:35:07;;;;;;;16.20;13.32;;;13.20;99.90;;;;;;5052967;28;20255;-76
2023/03/19 00:37:35;;;;;;;12.95;11.65;;;13.20;99.90;;;;;;5053177;28;20251;-76
2023/03/19 00:40:03;;;;;;;14.05;11.93;;;13.20;99.90;;;;;;5054349;28;20693;-80
2023/03/19 00:42:30;;;;;;;13.88;11.13;;;13.10;99.90;;;;;;5053142;28;20225;-79
2023/03/19 00:44:58;;;;;;;12.68;11.02;;;13.10;99.90;;;;;;5053823;28;20220;-77
2023/03/19 00:47:26;;;;;;;12.75;11.45;;;13.10;99.90;;;;;;5053530;28;20235;-77
2023/03/19 00:49:52;;;;;;;10.65;9.55;;;13.10;99.90;;;;;;5053115;28;20220;-79
2023/03/19 00:52:20;;;;;;;12.80;11.50;;;13.10;99.90;;;;;;5053687;28;20259;-78
2023/03/19 00:54:46;;;;;;;13.73;10.80;;;13.10;99.90;;;;;;5053002;28;20225;-76
2023/03/19 00:57:13;;;;;;;11.98;10.57;;;13.00;99.90;;;;;;5053525;28;20728;-79
2023/03/19 00:59:40;;;;;;;12.98;11.77;;;13.00;99.90;;;;;;5052922;28;20239;-76
2023/03/19 01:02:09;;;;;;;11.60;10.40;;;13.00;99.90;;;;;;5053013;28;20228;-76
2023/03/19 01:04:36;;;;;;;11.98;10.50;;;13.00;99.90;;;;;;5052512;28;20232;-79
2023/03/19 01:07:04;;;;;;;12.45;11.07;;;13.00;99.90;;;;;;5053412;28;20304;-79
2023/03/19 01:09:31;;;;;;;12.05;10.55;;;12.90;99.90;;;;;;5051894;28;20287;-77
2023/03/19 01:12:02;;;;;;;13.35;10.27;;;12.90;99.90;;;;;;5052945;28;20722;-79
2023/03/19 01:14:29;;;;;;;10.55;9.50;;;12.80;99.90;;;;;;5053387;28;20303;-79
2023/03/19 01:16:56;;;;;;;12.18;11.00;;;12.80;99.90;;;;;;5052023;28;20565;-76
2023/03/19 01:19:25;;;;;;;11.82;10.80;;;12.80;99.90;;;;;;5052817;28;20290;-79
2023/03/19 01:21:52;;;;;;;12.05;10.43;;;12.80;99.90;;;;;;5052447;28;20225;-79
2023/03/19 01:24:19;;;;;;;10.32;9.43;;;12.70;99.90;;;;;;5052764;28;20240;-79
2023/03/19 01:26:46;;;;;;;11.98;10.88;;;12.70;99.90;;;;;;5051810;28;20332;-76
2023/03/19 01:29:16;;;;;;;14.70;10.93;;;12.70;99.90;;;;;;5053000;28;20225;-79
2023/03/19 01:31:43;;;;;;;11.02;10.02;;;12.70;99.90;;;;;;5051604;28;20764;-76
2023/03/19 01:34:16;;;;;;;14.18;11.60;;;12.70;99.90;;;;;;5052742;28;20600;-79
2023/03/19 01:36:44;;;;;;;14.73;11.82;;;12.70;99.90;;;;;;5051521;28;20254;-76
2023/03/19 01:39:11;;;;;;;12.98;11.52;;;12.70;99.90;;;;;;5052372;28;20259;-79
2023/03/19 01:41:38;;;;;;;11.23;10.05;;;12.70;99.90;;;;;;5052426;28;20225;-79
2023/03/19 01:44:24;;;;;;;12.48;10.75;;;12.70;99.90;;;;;;5052127;28;20678;-76
2023/03/19 01:46:52;;;;;;;13.93;10.70;;;12.60;99.90;;;;;;5051723;28;20251;-76
2023/03/19 01:49:21;;;;;;;12.05;10.85;;;12.60;99.90;;;;;;5052751;28;20576;-79
2023/03/19 01:51:51;;;;;;;12.20;10.93;;;12.60;99.90;;;;;;5052215;28;20225;-79
2023/03/19 01:54:23;;;;;;;12.15;10.85;;;12.60;99.90;;;;;;5052492;28;20648;-76
2023/03/19 01:56:53;;;;;;;11.90;10.73;;;12.60;99.90;;;;;;5051855;28;20658;-76
2023/03/19 01:59:26;;;;;;;11.60;10.60;;;12.60;99.90;;;;;;5052245;28;20233;-79
2023/03/19 02:01:57;;;;;;;12.13;10.98;;;12.60;99.90;;;;;;5043445;28;20682;-76
2023/03/19 02:04:31;;;;;;;14.63;13.10;;;12.50;99.90;;;;;;5052405;28;20706;-76
2023/03/19 02:07:05;;;;;;;13.60;11.90;;;12.50;99.90;;;;;;5052007;28;20232;-77
2023/03/19 02:09:32;;;;;;;13.15;11.57;;;12.50;99.90;;;;;;5050739;28;20328;-77
2023/03/19 02:12:01;;;;;;;12.95;11.65;;;12.50;99.90;;;;;;5051773;28;20224;-79
2023/03/19 02:14:32;;;;;;;14.43;13.00;;;12.50;99.90;;;;;;5050994;28;20224;-77
2023/03/19 02:17:04;;;;;;;12.90;11.15;;;12.50;99.90;;;;;;5051871;28;20560;-78
2023/03/19 02:19:40;;;;;;;12.45;11.15;;;12.50;99.90;;;;;;5052634;28;20655;-79
2023/03/19 02:22:11;;;;;;;13.20;11.80;;;12.40;99.90;;;;;;5051979;28;20577;-76
2023/03/19 02:24:45;;;;;;;14.70;12.73;;;12.40;99.90;;;;;;5052799;28;20220;-78
2023/03/19 02:27:13;;;;;;;12.95;11.57;;;12.40;99.90;;;;;;5050663;28;20254;-79
2023/03/19 02:29:40;;;;;;;12.25;11.13;;;12.40;99.90;;;;;;5052132;28;20229;-76
2023/03/19 02:32:08;;;;;;;12.45;11.20;;;12.40;99.90;;;;;;5051962;28;20239;-79
2023/03/19 02:34:42;;;;;;;13.82;11.77;;;12.40;99.90;;;;;;5052656;28;20874;-75
2023/03/19 02:37:17;;;;;;;14.10;11.35;;;12.40;99.90;;;;;;5052380;28;20381;-75
2023/03/19 02:39:51;;;;;;;14.40;12.80;;;12.30;99.90;;;;;;5052839;28;20282;-76
2023/03/19 02:42:22;;;;;;;14.35;12.85;;;12.30;99.90;;;;;;5048597;28;20213;-78
2023/03/19 02:44:49;;;;;;;17.85;13.65;;;12.30;99.90;;;;;;5054852;28;20217;-76
2023/03/19 02:47:16;;;;;;;13.25;11.90;;;12.30;99.90;;;;;;5068456;28;20232;-79
2023/03/19 02:49:43;;;;;;;17.70;13.90;;;12.40;99.90;;;;;;5062013;28;20599;-75
2023/03/19 02:52:11;;;;;;;13.48;12.10;;;12.40;99.90;;;;;;5058104;28;20724;-76
2023/03/19 02:54:38;;;;;;;16.95;13.15;;;12.40;99.90;;;;;;5064591;28;20220;-76
2023/03/19 02:57:05;;;;;;;15.48;12.45;;;12.40;99.90;;;;;;5063899;28;20232;-75
2023/03/19 02:59:34;;;;;;;13.88;12.38;;;12.50;99.90;;;;;;5059815;28;20239;-76
2023/03/19 03:02:02;;;;;;;15.25;12.13;;;12.50;99.90;;;;;;5056523;28;20676;-79
2023/03/19 03:04:29;;;;;;;11.57;10.50;;;12.60;99.90;;;;;;5055730;28;20674;-76
2023/03/19 03:06:56;;;;;;;19.05;13.20;;;12.60;99.90;;;;;;5055835;28;20600;-79
2023/03/19 03:09:23;;;;;;;15.13;12.70;;;12.70;99.90;;;;;;5054926;28;20718;-76
2023/03/19 03:11:51;;;;;;;13.52;12.10;;;12.70;99.70;;;;;;5056062;28;20221;-79
2023/03/19 03:14:18;;;;;;;15.82;14.15;;;12.70;99.70;;;;;;5055347;28;20252;-78
2023/03/19 03:16:46;;;;;;;14.13;12.25;;;12.70;99.70;;;;;;5055838;28;20263;-79
2023/03/19 03:19:13;;;;;;;14.90;12.85;;;12.70;99.60;;;;;;5055743;28;20588;-78
2023/03/19 03:21:41;;;;;;;13.75;12.35;;;12.70;99.20;;;;;;5055781;28;20224;-76
2023/03/19 03:24:09;;;;;;;13.88;12.50;;;12.70;99.30;;;;;;5055831;28;20294;-77
2023/03/19 03:26:38;;;;;;;13.57;12.18;;;12.70;99.20;;;;;;5057375;28;20221;-79
2023/03/19 03:29:05;;;;;;;12.68;11.45;;;12.70;99.30;;;;;;5055615;28;20224;-77
2023/03/19 03:31:33;;;;;;;12.48;11.27;;;12.70;99.30;;;;;;5055751;28;20224;-76
2023/03/19 03:34:02;;;;;;;12.65;11.35;;;12.70;99.30;;;;;;5045209;28;20221;-80
2023/03/19 03:36:32;;;;;;;14.90;12.82;;;12.70;99.30;;;;;;5056160;28;20224;-79
2023/03/19 03:38:59;;;;;;;13.98;11.30;;;12.70;99.60;;;;;;5056266;28;20221;-79
2023/03/19 03:41:27;;;;;;;14.07;10.70;;;12.70;99.30;;;;;;5056113;28;20283;-76
2023/03/19 03:43:56;;;;;;;14.02;12.73;;;12.70;99.30;;;;;;5055700;28;20694;-76
2023/03/19 03:46:23;;;;;;;13.20;11.80;;;12.70;99.30;;;;;;5055285;28;20320;-79
2023/03/19 03:48:51;;;;;;;12.70;10.80;;;12.70;99.40;;;;;;5056557;28;20229;-80
2023/03/19 03:51:20;;;;;;;13.63;11.38;;;12.70;99.60;;;;;;5056896;28;20420;-80
2023/03/19 03:53:47;;;;;;;12.50;10.57;;;12.70;99.80;;;;;;5056569;28;20308;-80
2023/03/19 03:56:15;;;;;;;13.82;11.90;;;12.70;99.70;;;;;;5056186;28;20256;-80
2023/03/19 03:58:42;;;;;;;13.85;12.55;;;12.60;99.80;;;;;;5056401;28;20229;-80
2023/03/19 04:01:13;;;;;;;12.25;10.93;;;12.60;99.90;;;;;;5055803;28;20224;-77
2023/03/19 04:03:48;;;;;;;14.63;13.15;;;12.60;99.90;;;;;;5057132;28;20221;-77
2023/03/19 04:06:17;;;;;;;17.08;14.27;;;12.60;99.80;;;;;;5054836;28;20227;-78
2023/03/19 04:08:45;;;;;;;15.32;12.60;;;12.60;99.80;;;;;;5055455;28;20236;-81
2023/03/19 04:11:12;;;;;;;15.80;12.65;;;12.60;99.90;;;;;;5066972;28;20225;-80
2023/03/19 04:13:40;;;;;;;15.77;13.52;;;12.60;99.80;;;;;;5068814;28;20294;-80
2023/03/19 04:16:09;;;;;;;13.63;12.23;;;12.50;99.70;;;;;;5060862;28;20252;-80
2023/03/19 04:18:36;;;;;;;14.60;13.18;;;12.50;99.80;;;;;;5068309;28;20224;-80
2023/03/19 04:21:04;;;;;;;13.95;12.60;;;12.50;99.90;;;;;;5069747;28;20216;-80
2023/03/19 04:23:31;;;;;;;14.80;12.52;;;12.50;99.90;;;;;;5070060;28;20311;-79
2023/03/19 04:26:00;;;;;;;15.63;13.93;;;12.50;99.90;;;;;;5070980;28;20216;-80
2023/03/19 04:28:28;;;;;;;15.55;13.75;;;12.50;99.90;;;;;;5065450;28;20224;-77
2023/03/19 04:30:59;;;;;;;16.05;14.38;;;12.50;99.90;;;;;;5066506;28;20223;-79
2023/03/19 04:33:26;;;;;;;15.73;13.77;;;12.50;99.90;;;;;;5069558;28;20235;-79
2023/03/19 04:35:54;;;;;;;14.57;13.13;;;12.50;99.90;;;;;;5069360;28;20276;-77
2023/03/19 04:38:27;;;;;;;16.08;13.77;;;12.50;99.90;;;;;;5058046;28;20231;-79
2023/03/19 04:40:55;;;;;;;15.10;13.50;;;12.40;99.90;;;;;;5071104;28;20232;-79
2023/03/19 04:43:23;;;;;;;15.93;13.48;;;12.40;99.90;;;;;;5069382;28;20220;-77
2023/03/19 04:45:50;;;;;;;13.50;12.18;;;12.40;99.90;;;;;;5069230;28;20220;-77
2023/03/19 04:48:18;;;;;;;22.90;14.00;;;12.40;99.90;;;;;;5069469;28;20232;-80
2023/03/19 04:50:51;;;;;;;15.07;13.52;;;12.50;99.90;;;;;;5060722;28;20726;-77
2023/03/19 04:53:21;;;;;;;14.40;12.85;;;12.50;99.90;;;;;;5056184;28;20244;-79
2023/03/19 04:55:48;;;;;;;15.90;13.63;;;12.50;99.90;;;;;;5054842;28;20674;-77
2023/03/19 04:58:16;;;;;;;16.83;13.00;;;12.50;99.90;;;;;;5055312;28;20220;-77
2023/03/19 05:00:47;;;;;;;14.00;12.65;;;12.50;99.90;;;;;;5052965;28;20290;-80
2023/03/19 05:03:14;;;;;;;27.70;13.75;;;12.50;99.90;;;;;;5056211;28;20224;-77
2023/03/19 05:05:42;;;;;;;15.02;13.57;;;12.50;99.90;;;;;;5044154;28;20607;-80
2023/03/19 05:08:17;;;;;;;14.02;12.15;;;12.50;99.90;;;;;;5054118;28;20593;-80
2023/03/19 05:10:44;;;;;;;13.30;12.00;;;12.50;99.90;;;;;;5055096;28;20308;-77
2023/03/19 05:13:12;;;;;;;17.85;13.80;;;12.50;99.90;;;;;;5055155;28;20227;-81
2023/03/19 05:15:41;;;;;;;15.40;13.80;;;12.50;99.90;;;;;;5055639;28;20248;-76
2023/03/19 05:18:10;;;;;;;14.02;12.45;;;12.50;99.90;;;;;;5053389;28;20228;-81
2023/03/19 05:20:38;;;;;;;16.38;13.38;;;12.50;99.90;;;;;;5052607;28;20704;-77
2023/03/19 05:23:06;;;;;;;16.98;13.82;;;12.50;99.90;;;;;;5053128;28;20225;-77
2023/03/19 05:25:35;;;;;;;17.70;15.45;;;12.50;99.90;;;;;;5052500;28;20271;-77
2023/03/19 05:28:02;;;;;;;15.88;14.27;;;12.40;99.90;;;;;;5053440;28;20228;-81
2023/03/19 05:30:30;;;;;;;14.43;12.95;;;12.40;99.90;;;;;;5052831;28;20554;-80
2023/03/19 05:32:58;;;;;;;17.52;15.48;;;12.40;99.90;;;;;;5052390;28;20236;-77
2023/03/19 05:35:28;;;;;;;17.17;15.35;;;12.40;99.90;;;;;;5053813;28;20221;-80
2023/03/19 05:37:56;;;;;;;17.50;15.35;;;12.30;99.90;;;;;;5052853;28;20224;-77
2023/03/19 05:40:23;;;;;;;16.70;14.48;;;12.30;99.90;;;;;;5053071;28;20571;-80
2023/03/19 05:42:51;;;;;;;17.75;15.95;;;12.20;99.90;;;;;;5052922;28;20229;-77
2023/03/19 05:45:18;;;;;;;25.70;15.98;;;12.20;99.90;;;;;;5052815;28;20583;-80
2023/03/19 05:47:48;;;;;;;17.88;15.93;;;12.20;99.90;;;;;;5051951;28;20239;-78
2023/03/19 05:50:15;;;;;;;17.85;15.95;;;12.10;99.90;;;;;;5053408;28;20254;-80
2023/03/19 05:52:44;;;;;;;16.02;14.43;;;12.10;99.90;;;;;;5052344;28;20658;-80
2023/03/19 05:55:11;;;;;;;18.50;16.45;;;12.10;99.90;;;;;;5052830;28;20240;-80
2023/03/19 05:57:38;;;;;;;17.10;14.43;;;12.10;99.90;;;;;;5052335;28;20405;-78
2023/03/19 06:00:08;;;;;;;15.65;14.10;;;12.10;99.90;;;;;;5052169;28;20233;-80
2023/03/19 06:02:36;;;;;;;14.60;12.85;;;12.00;99.90;;;;;;5052923;28;20238;-79
2023/03/19 06:05:03;;;;;;;16.00;13.65;;;12.10;99.90;;;;;;5053177;28;20286;-80
2023/03/19 06:07:30;;;;;;;14.32;12.82;;;12.10;99.90;;;;;;5042358;28;20232;-80
2023/03/19 06:09:59;;;;;;;16.02;14.05;;;12.10;99.90;;;;;;5040663;28;20232;-79
2023/03/19 06:12:27;;;;;;;15.68;13.55;;;12.10;99.90;;;;;;5033019;28;20252;-76
2023/03/19 06:14:55;;;;;;;15.52;13.93;;;12.20;99.90;;;;;;5032004;28;20222;-77
2023/03/19 06:17:22;;;;;;;13.65;12.35;;;12.20;99.90;;;;;;5032289;28;20224;-80
2023/03/19 06:19:49;;;;;;;14.05;12.75;;;12.20;99.90;;;;;;5032477;28;20300;-79
2023/03/19 06:22:16;;;;;;;13.80;11.68;;;12.20;99.90;;;;;;5032721;28;20225;-79
2023/03/19 06:24:46;;;;;;;14.18;12.80;;;12.20;99.90;;;;;;5032150;28;20229;-78
2023/03/19 06:27:14;;;;;;;15.35;13.38;;;12.30;99.90;;;;;;5032556;28;20308;-79
2023/03/19 06:29:41;;;;;;;13.02;11.75;;;12.30;99.90;;;;;;5029950;28;20239;-79
2023/03/19 06:32:09;;;;;;;12.30;11.00;;;12.40;99.90;;;;;;5034220;28;20608;-79
2023/03/19 06:34:36;;;;;;;12.40;11.18;;;12.40;99.90;;;;;;5036382;28;20221;-76
2023/03/19 06:37:03;;;;;;;13.50;12.20;;;12.40;99.90;;;;;;5035425;28;20233;-76
2023/03/19 06:39:33;;;;;;;12.98;11.68;;;12.50;99.90;;;;;;5035412;28;20233;-76
2023/03/19 06:42:00;;;;;;;13.75;12.38;;;12.50;99.90;;;;;;5035712;28;20691;-76
2023/03/19 06:44:32;;;;;;;16.42;12.27;;;12.50;99.90;;;;;;5036040;28;20237;-79
2023/03/19 06:46:59;;;;;;;11.98;10.85;;;12.60;99.90;;;;;;5035847;28;20233;-79
2023/03/19 06:49:26;;;;;;;12.40;11.15;;;12.60;99.90;;;;;;5036020;28;20234;-80
2023/03/19 06:51:53;;;;;;;12.80;11.63;;;12.70;99.90;;;;;;5035486;28;21109;-76
2023/03/19 06:54:20;;;;;;;11.57;10.35;;;12.70;99.90;;;;;;5036145;28;20225;-79
2023/03/19 06:56:47;;;;;;;12.65;11.10;;;12.80;99.90;;;;;;5035759;28;20667;-78
2023/03/19 06:59:14;;;;;;;13.07;11.77;;;12.80;99.90;;;;;;5035648;28;20229;-76
2023/03/19 07:01:43;;;;;;;12.30;11.30;;;12.90;99.90;;;;;;5036117;28;20259;-77
2023/03/19 07:04:10;;;;;;;13.18;11.88;;;12.90;99.90;;;;;;5034892;28;20639;-77
2023/03/19 07:06:37;;;;;;;13.20;12.05;;;12.90;99.90;;;;;;5036429;28;20572;-76
2023/03/19 07:09:04;;;;;;;11.52;10.63;;;12.90;99.90;;;;;;5044837;28;20570;-78
2023/03/19 07:11:32;;;;;;;13.00;11.70;;;12.90;99.90;;;;;;5056472;28;20227;-78
2023/03/19 07:13:59;;;;;;;14.93;12.35;;;12.90;99.90;;;;;;5054790;28;20271;-79
2023/03/19 07:16:26;;;;;;;15.43;12.07;;;12.90;99.90;;;;;;5053541;28;20239;-79
2023/03/19 07:18:56;;;;;;;14.02;12.63;;;12.90;99.90;;;;;;5054493;28;20674;-76
2023/03/19 07:21:23;;;;;;;13.60;12.38;;;12.80;99.90;;;;;;5055484;28;20224;-77
2023/03/19 07:23:50;;;;;;;12.98;11.70;;;12.80;99.90;;;;;;5057255;28;20224;-79
2023/03/19 07:26:18;;;;;;;14.77;13.25;;;12.80;99.90;;;;;;5061560;28;20225;-80
2023/03/19 07:28:45;;;;;;;16.02;14.50;;;12.80;99.90;;;;;;5056437;28;20233;-76
2023/03/19 07:31:12;;;;;;;14.50;13.00;;;12.80;99.90;;;;;;5060102;28;20247;-81
2023/03/19 07:33:40;;;;;;;15.63;14.13;;;12.80;99.90;;;;;;5062354;28;20232;-80
2023/03/19 07:36:10;;;;;;;14.10;12.43;;;12.70;99.90;;;;;;5058725;28;20240;-81
2023/03/19 07:38:37;;;;;;;17.67;13.75;;;12.70;99.90;;;;;;5056960;28;20263;-81
2023/03/19 07:41:04;;;;;;;16.70;14.93;;;12.70;99.90;;;;;;5055727;28;20286;-80
2023/03/19 07:43:32;;;;;;;15.93;14.35;;;12.70;99.90;;;;;;5055398;28;20225;-77
2023/03/19 07:45:59;;;;;;;16.67;14.82;;;12.60;99.90;;;;;;5054079;28;20220;-81
2023/03/19 07:48:27;;;;;;;18.10;15.48;;;12.60;99.90;;;;;;5054579;28;20692;-76
2023/03/19 07:50:54;;;;;;;16.38;13.82;;;12.50;99.90;;;;;;5054041;28;20221;-76
2023/03/19 07:53:22;;;;;;;19.38;15.20;;;12.50;99.90;;;;;;5055015;28;20220;-76
2023/03/19 07:55:50;;;;;;;16.55;14.88;;;12.50;99.90;;;;;;5054324;28;20224;-79
2023/03/19 07:58:17;;;;;;;17.23;14.57;;;12.60;99.90;;;;;;5054520;28;20240;-76
2023/03/19 08:00:45;;;;;;;17.67;16.08;;;12.50;99.90;;;;;;5059347;28;20535;-77
2023/03/19 08:03:12;;;;;;;17.17;15.43;;;12.50;99.90;;;;;;5061272;28;20235;-79
2023/03/19 08:05:39;;;;;;;16.63;15.02;;;12.50;99.90;;;;;;5069728;28;20247;-80
2023/03/19 08:08:06;;;;;;;17.85;15.15;;;12.50;99.90;;;;;;5066631;28;20231;-76
2023/03/19 08:10:35;;;;;;;18.98;16.98;;;12.50;99.90;;;;;;5063596;28;20220;-80
2023/03/19 08:13:03;;;;;;;19.17;15.80;;;12.50;99.90;;;;;;5060903;28;20300;-76
2023/03/19 08:15:30;;;;;;;18.90;14.45;;;12.50;99.90;;;;;;5057812;28;20221;-76
2023/03/19 08:17:59;;;;;;;16.58;14.88;;;12.50;99.90;;;;;;5060364;28;20286;-76
2023/03/19 08:20:26;;;;;;;17.33;15.57;;;12.50;99.90;;;;;;5056197;28;20220;-76
2023/03/19 08:23:02;;;;;;;19.08;17.15;;;12.50;99.90;;;;;;5055786;28;20254;-76
2023/03/19 08:25:31;;;;;;;18.88;16.90;;;12.50;99.90;;;;;;5055464;28;20334;-77
2023/03/19 08:27:59;;;;;;;25.60;20.80;;;12.50;99.90;;;;;;5055111;28;20225;-77
2023/03/19 08:30:27;;;;;;;19.35;17.42;;;12.50;99.90;;;;;;5046389;28;21210;-79
2023/03/19 08:32:54;;;;;;;19.58;16.85;;;12.50;99.90;;;;;;5053612;28;20221;-76
2023/03/19 08:35:21;;;;;;;18.50;16.45;;;12.50;99.90;;;;;;5044713;28;20294;-76
2023/03/19 08:37:48;;;;;;;18.65;16.75;;;12.50;99.90;;;;;;5053843;28;20224;-81
2023/03/19 08:40:19;;;;;;;19.00;16.90;;;12.50;99.90;;;;;;5052388;28;20236;-77
2023/03/19 08:42:47;;;;;;;20.02;17.92;;;12.50;99.90;;;;;;5053213;28;20233;-76
2023/03/19 08:45:16;;;;;;;20.85;18.73;;;12.50;99.90;;;;;;5052719;28;20248;-80
2023/03/19 08:47:44;;;;;;;19.17;17.27;;;12.50;99.90;;;;;;5053036;28;20711;-80
2023/03/19 08:50:12;;;;;;;18.02;16.13;;;12.40;99.90;;;;;;5053234;28;20221;-80
2023/03/19 08:52:39;;;;;;;20.17;17.52;;;12.40;99.90;;;;;;5053046;28;20303;-80
2023/03/19 08:55:08;;;;;;;19.02;17.02;;;12.40;99.90;;;;;;5052947;28;20229;-80
2023/03/19 08:57:36;;;;;;;19.77;17.60;;;12.40;99.90;;;;;;5052095;28;20232;-78
2023/03/19 09:00:04;;;;;;;17.35;15.75;;;12.40;99.90;;;;;;5051280;28;20255;-76
2023/03/19 09:02:33;;;;;;;19.65;17.67;;;12.40;99.90;;;;;;5051111;28;20224;-77
2023/03/19 09:05:01;;;;;;;18.73;16.95;;;12.40;99.90;;;;;;5053386;28;20235;-80
2023/03/19 09:07:28;;;;;;;24.50;19.15;;;12.30;99.90;;;;;;5040123;28;20701;-77
2023/03/19 09:09:59;;;;;;;18.90;16.90;;;12.20;99.90;;;;;;5041957;28;20224;-81
2023/03/19 09:12:26;;;;;;;19.90;16.83;;;12.20;99.90;;;;;;5035202;28;20233;-79
2023/03/19 09:14:53;;;;;;;18.30;16.45;;;12.10;99.90;;;;;;5047788;28;20236;-80
2023/03/19 09:17:21;;;;;;;18.02;16.23;;;12.10;99.90;;;;;;5032533;28;20232;-81
2023/03/19 09:19:49;;;;;;;17.75;15.68;;;12.10;99.90;;;;;;5031624;28;20233;-77
2023/03/19 09:22:16;;;;;;;16.65;15.15;;;12.10;99.90;;;;;;5032207;28;20272;-80
2023/03/19 09:24:43;;;;;;;16.63;14.93;;;12.20;99.90;;;;;;5031358;28;20642;-80
2023/03/19 09:27:12;;;;;;;16.45;14.80;;;12.20;99.90;;;;;;5031878;28;20225;-77
2023/03/19 09:29:40;;;;;;;19.30;15.05;;;12.20;99.90;;;;;;5031916;28;20231;-79
2023/03/19 09:32:07;;;;;;;18.45;16.55;;;12.30;99.90;;;;;;5032108;28;20327;-80
2023/03/19 09:34:34;;;;;;;19.58;17.08;;;12.30;99.90;;;;;;5030974;28;20255;-77
2023/03/19 09:37:02;;;;;;;18.67;16.77;;;12.40;99.90;;;;;;5032032;28;20221;-81
2023/03/19 09:39:29;;;;;;;19.67;15.18;;;12.40;99.90;;;;;;5031955;28;20247;-77
2023/03/19 09:42:05;;;;;;;16.50;14.77;;;12.40;99.90;;;;;;5032045;28;20225;-79
2023/03/19 09:44:36;;;;;;;15.65;14.15;;;12.40;99.90;;;;;;5032223;28;20248;-77
2023/03/19 09:47:20;;;;;;;14.45;13.05;;;12.40;99.90;;;;;;5031830;28;20283;-77
2023/03/19 09:49:48;;;;;;;15.90;14.10;;;12.50;99.90;;;;;;5031253;28;20313;-80
2023/03/19 09:52:33;;;;;;;14.70;13.20;;;12.50;99.90;;;;;;5032399;28;20225;-80
2023/03/19 09:55:05;;;;;;;16.35;14.35;;;12.60;99.90;;;;;;5030527;28;20237;-77
2023/03/19 09:57:33;;;;;;;15.52;14.10;;;12.70;99.90;;;;;;5033548;28;20235;-77
2023/03/19 10:00:00;;;;;;;15.30;13.80;;;12.70;99.90;;;;;;5033890;28;20228;-77
2023/03/19 10:02:41;;;;;;;15.05;13.55;;;12.80;99.90;;;;;;5035889;28;20275;-80
2023/03/19 10:05:25;;;;;;;14.90;12.07;;;12.90;99.90;;;;;;5043522;28;20259;-80
2023/03/19 10:10:50;;;;;;;16.40;14.60;;;12.90;99.90;;;;;;5093112;27;20569;-78
2023/03/19 10:13:30;;;;;;;14.80;13.35;;;13.00;99.90;;;;;;5096399;28;20223;-76
2023/03/19 10:16:01;;;;;;;12.48;11.23;;;13.00;99.90;;;;;;5089187;28;20223;-77
2023/03/19 10:18:30;;;;;;;13.95;12.52;;;13.10;99.90;;;;;;5109047;27;20317;-77
2023/03/19 10:21:01;;;;;;;15.13;13.73;;;13.20;99.90;;;;;;5124758;27;20226;-76
2023/03/19 10:23:39;;;;;;;13.65;12.35;;;13.20;99.90;;;;;;5129787;27;20242;-78
2023/03/19 10:26:12;;;;;;;14.05;12.68;;;13.40;99.90;;;;;;5123955;27;20252;-76
2023/03/19 10:28:43;;;;;;;14.55;13.05;;;13.40;99.90;;;;;;5124026;27;20253;-77
2023/03/19 10:31:32;;;;;;;12.43;11.17;;;13.50;99.90;;;;;;5124493;27;20226;-80
2023/03/19 10:34:14;;;;;;;15.95;14.48;;;13.50;99.90;;;;;;5123008;27;20467;-79
2023/03/19 10:36:41;;;;;;;15.30;13.87;;;13.60;99.90;;;;;;5116628;27;20668;-77
2023/03/19 10:39:13;;;;;;;13.45;12.05;;;13.60;99.90;;;;;;5117950;27;20468;-80
2023/03/19 10:41:58;;;;;;;12.97;11.70;;;13.70;99.90;;;;;;5114362;27;20241;-77
2023/03/19 10:44:32;;;;;;;17.37;14.63;;;13.80;99.90;;;;;;5117910;27;20521;-76
2023/03/19 10:47:11;;;;;;;16.30;13.10;;;13.80;99.90;;;;;;5119708;27;20453;-79
2023/03/19 10:49:38;;;;;;;13.87;12.47;;;13.90;99.90;;;;;;5120314;27;20456;-77
2023/03/19 10:52:06;;;;;;;13.20;12.00;;;13.90;99.90;;;;;;5129953;27;20766;-80
2023/03/19 10:54:33;;;;;;;12.90;11.50;;;14.00;99.90;;;;;;5126019;27;20524;-81
2023/03/19 10:57:02;;;;;;;15.07;13.57;;;14.10;99.90;;;;;;5105612;27;20526;-81
2023/03/19 10:59:38;;;;;;;13.45;12.20;;;14.20;99.90;;;;;;5140004;27;20229;-80
2023/03/19 11:02:21;;;;;;;12.43;11.23;;;14.20;99.90;;;;;;5107097;27;20234;-82
2023/03/19 11:04:48;;;;;;;12.83;11.57;;;14.30;99.90;;;;;;5102234;27;20874;-79
2023/03/19 11:07:19;;;;;;;12.77;11.53;;;14.30;99.90;;;;;;5091198;28;20507;-79
2023/03/19 11:09:50;;;;;;;10.93;9.93;;;14.40;99.90;;;;;;5089511;28;20469;-77
2023/03/19 11:12:21;;;;;;;12.53;11.33;;;14.40;99.90;;;;;;5106307;27;20472;-77
2023/03/19 11:14:51;;;;;;;10.93;9.83;;;14.40;99.90;;;;;;5109765;27;20814;-77
2023/03/19 11:17:22;;;;;;;13.10;11.80;;;14.50;99.90;;;;;;5108825;27;20521;-77
2023/03/19 11:19:52;;;;;;;12.67;11.37;;;14.50;99.90;;;;;;5099514;27;21019;-80
2023/03/19 11:22:23;;;;;;;11.85;10.73;;;14.60;99.90;;;;;;5074951;28;20454;-79
2023/03/19 11:24:52;;;;;;;10.77;9.77;;;14.60;99.90;;;;;;5075772;28;20224;-77
2023/03/19 11:27:28;;;;;;;10.70;9.83;;;14.60;99.90;;;;;;5075912;28;20520;-77
2023/03/19 11:29:55;;;;;;;14.90;12.07;;;14.50;99.90;;;;;;5076147;28;20480;-80
2023/03/19 11:32:57;;;;;;;11.30;10.40;;;14.50;99.90;;;;;;5075488;28;20914;-80
2023/03/19 11:35:28;;;;;;;13.07;11.77;;;14.50;99.90;;;;;;5075453;28;21247;-76
2023/03/19 11:38:02;;;;;;;10.63;9.60;;;14.50;99.90;;;;;;5093175;28;20469;-78
2023/03/19 11:40:42;;;;;;;11.40;9.90;;;14.60;99.90;;;;;;5095119;27;20453;-79
2023/03/19 11:43:41;;;;;;;9.67;8.70;;;14.60;99.90;;;;;;5095625;28;20526;-81
2023/03/19 11:46:23;;;;;;;9.83;8.93;;;14.60;99.90;;;;;;5090230;28;20954;-76
2023/03/19 11:49:16;;;;;;;7.87;7.07;;;14.70;99.90;;;;;;5095441;28;20473;-80
2023/03/19 11:51:49;;;;;;;10.93;9.87;;;14.70;99.90;;;;;;5096326;28;20466;-80
2023/03/19 11:54:23;;;;;;;8.80;7.90;;;14.80;99.90;;;;;;5095776;28;21002;-77
2023/03/19 11:56:59;;;;;;;8.27;7.47;;;14.80;99.90;;;;;;5095289;28;20529;-77
2023/03/19 11:59:53;;;;;;;9.70;9.00;;;14.90;99.90;;;;;;5094526;28;20923;-76
2023/03/19 12:02:50;;;;;;;10.37;9.43;;;14.90;99.90;;;;;;5094167;27;20461;-78
2023/03/19 12:05:33;;;;;;;10.03;8.00;;;14.90;99.90;;;;;;5074745;28;20529;-76
2023/03/19 12:08:12;;;;;;;9.03;8.20;;;15.00;99.90;;;;;;5075470;28;20466;-80
2023/03/19 12:10:52;;;;;;;7.93;7.13;;;15.00;99.90;;;;;;5082602;28;20470;-77
2023/03/19 12:13:31;;;;;;;9.23;8.43;;;15.00;99.90;;;;;;5100549;28;20480;-77
2023/03/19 12:16:12;;;;;;;11.57;8.70;;;15.00;99.90;;;;;;5096289;28;20469;-80
2023/03/19 12:18:53;;;;;;;8.73;7.93;;;15.10;99.90;;;;;;5086745;28;20462;-76
2023/03/19 12:21:33;;;;;;;9.00;8.20;;;15.10;99.90;;;;;;5074689;28;20982;-81
2023/03/19 12:24:05;;;;;;;7.90;6.80;;;15.20;99.90;;;;;;5074332;28;20934;-77
2023/03/19 12:26:47;;;;;;;8.17;6.80;;;15.20;99.90;;;;;;5075078;28;20489;-77
2023/03/19 12:29:23;;;;;;;7.93;7.23;;;15.20;99.90;;;;;;5074513;28;20470;-77
2023/03/19 12:32:22;;;;;;;7.20;6.50;;;15.30;99.90;;;;;;5073933;28;20465;-76
2023/03/19 12:34:53;;;;;;;8.30;7.50;;;15.40;99.90;;;;;;5061629;28;20458;-77
2023/03/19 12:37:27;;;;;;;9.90;7.73;;;15.40;99.90;;;;;;5074425;28;20803;-80
2023/03/19 12:40:07;;;;;;;8.23;7.53;;;15.40;99.90;;;;;;5074333;28;20466;-76
2023/03/19 12:42:39;;;;;;;9.03;8.23;;;15.50;99.90;;;;;;5074339;28;20466;-80
2023/03/19 12:45:18;;;;;;;8.10;6.80;;;15.50;99.90;;;;;;5074861;28;20466;-76